Time;durP1;ratioP1;P1;durP2;ratioP2;P2;SDS_P1;SDS_P2;PMS_P1;PMS_P2;Temp;Humidity;BMP_temperature;BMP_pressure;BME280_temperature;BME280_humidity;BME280_pressure;Samples;Min_cycle;Max_cycle;Signal;HPM_P1;HPM_P2
2024/02/11 00:00:30;;;;;;;;;;;;;;;;;;4971181;28;20092;-69
2024/02/11 00:02:56;;;;;;;12.75;8.20;;;;;;;;;;4969624;28;19914;-68
2024/02/11 00:05:28;;;;;;;30.35;18.15;;;;;;;;;;4969657;28;20031;-68
2024/02/11 00:07:55;;;;;;;32.40;16.90;;;;;;;;;;4970237;28;20054;-68
2024/02/11 00:10:21;;;;;;;35.03;20.00;;;;;;;;;;4968968;28;20530;-68
2024/02/11 00:12:47;;;;;;;22.20;12.35;;;;;;;;;;4970064;28;20043;-68
2024/02/11 00:15:14;;;;;;;21.20;15.27;;;;;;;;;;4969848;28;20050;-68
2024/02/11 00:17:40;;;;;;;11.57;9.68;;;;;;;;;;4969188;28;20038;-70
2024/02/11 00:20:14;;;;;;;42.25;24.05;;;;;;;;;;4969370;28;20085;-67
2024/02/11 00:22:40;;;;;;;16.13;10.85;;;;;;;;;;4969574;28;20046;-68
2024/02/11 00:25:09;;;;;;;16.02;11.05;;;;;;;;;;4970099;28;20034;-67
2024/02/11 00:27:35;;;;;;;50.08;25.88;;;;;;;;;;4966956;28;20513;-68
2024/02/11 00:30:04;;;;;;;22.08;14.07;;;;;;;;;;4970513;28;20465;-67
2024/02/11 00:32:31;;;;;;;11.35;8.43;;;;;;;;;;4970663;28;20033;-68
2024/02/11 00:34:58;;;;;;;34.90;19.42;;;;;;;;;;4971030;28;20445;-68
2024/02/11 00:37:26;;;;;;;12.98;8.95;;;;;;;;;;4970784;28;20037;-67
2024/02/11 00:39:52;;;;;;;28.67;16.67;;;;;;;;;;4971246;28;20579;-67
2024/02/11 00:42:20;;;;;;;13.55;9.98;;;;;;;;;;4971061;28;20035;-71
2024/02/11 00:44:45;;;;;;;9.57;8.65;;;;;;;;;;4968846;28;20113;-67
2024/02/11 00:47:11;;;;;;;22.98;12.38;;;;;;;;;;4969426;28;20480;-67
2024/02/11 00:49:37;;;;;;;16.85;11.57;;;;;;;;;;4968004;28;20027;-68
2024/02/11 00:52:04;;;;;;;18.67;11.65;;;;;;;;;;4967893;28;20045;-67
2024/02/11 00:54:35;;;;;;;9.95;8.70;;;;;;;;;;4970757;28;20740;-68
2024/02/11 00:57:01;;;;;;;7.55;6.85;;;;;;;;;;4968867;28;20058;-67
2024/02/11 00:59:27;;;;;;;50.25;9.43;;;;;;;;;;4969081;28;20065;-67
2024/02/11 01:01:53;;;;;;;12.38;9.48;;;;;;;;;;4967964;28;20071;-67
2024/02/11 01:04:19;;;;;;;13.60;8.93;;;;;;;;;;4968676;28;20050;-68
2024/02/11 01:06:45;;;;;;;7.65;6.65;;;;;;;;;;4968352;28;20073;-68
2024/02/11 01:09:11;;;;;;;36.03;22.25;;;;;;;;;;4970167;28;20122;-68
2024/02/11 01:11:36;;;;;;;22.65;14.38;;;;;;;;;;4968585;28;20457;-68
2024/02/11 01:14:03;;;;;;;20.40;13.20;;;;;;;;;;4968689;28;20047;-68
2024/02/11 01:16:29;;;;;;;9.30;8.10;;;;;;;;;;4968595;28;20057;-68
2024/02/11 01:18:54;;;;;;;7.57;6.25;;;;;;;;;;4968294;28;20042;-68
2024/02/11 01:21:20;;;;;;;8.77;7.90;;;;;;;;;;4969184;28;20528;-68
2024/02/11 01:23:47;;;;;;;10.73;8.77;;;;;;;;;;4967346;28;20042;-69
2024/02/11 01:26:13;;;;;;;9.40;7.32;;;;;;;;;;4968318;28;20058;-68
2024/02/11 01:28:39;;;;;;;10.32;7.70;;;;;;;;;;4967979;28;20085;-68
2024/02/11 01:31:06;;;;;;;16.83;12.43;;;;;;;;;;4968538;28;20041;-68
2024/02/11 01:33:32;;;;;;;12.82;7.60;;;;;;;;;;4974222;28;20043;-67
2024/02/11 01:35:58;;;;;;;9.93;7.95;;;;;;;;;;4975021;28;20292;-69
2024/02/11 01:38:24;;;;;;;11.35;7.93;;;;;;;;;;4970181;28;20046;-68
2024/02/11 01:40:50;;;;;;;10.85;9.75;;;;;;;;;;4968122;28;20035;-68
2024/02/11 01:43:16;;;;;;;7.78;7.03;;;;;;;;;;4967882;28;20232;-68
2024/02/11 01:45:45;;;;;;;8.10;7.38;;;;;;;;;;4967693;28;20555;-68
2024/02/11 01:48:11;;;;;;;5.13;4.78;;;;;;;;;;4966567;28;20444;-68
2024/02/11 01:50:37;;;;;;;21.52;10.32;;;;;;;;;;4948904;28;20032;-69
2024/02/11 01:53:04;;;;;;;8.32;7.47;;;;;;;;;;4967349;28;20526;-68
2024/02/11 01:55:29;;;;;;;5.85;5.35;;;;;;;;;;4968753;28;20034;-68
2024/02/11 01:57:56;;;;;;;12.45;9.50;;;;;;;;;;4967627;28;20069;-68
2024/02/11 02:00:22;;;;;;;6.18;5.55;;;;;;;;;;4967294;28;20151;-68
2024/02/11 02:02:48;;;;;;;11.40;8.93;;;;;;;;;;4965010;28;20125;-69
2024/02/11 02:05:14;;;;;;;9.50;8.38;;;;;;;;;;4966488;28;20066;-68
2024/02/11 02:07:40;;;;;;;8.15;7.25;;;;;;;;;;4968039;28;20062;-68
2024/02/11 02:10:06;;;;;;;11.55;7.07;;;;;;;;;;4967108;28;20038;-68
2024/02/11 02:12:34;;;;;;;13.48;9.02;;;;;;;;;;4966177;28;20046;-68
2024/02/11 02:15:01;;;;;;;12.13;9.60;;;;;;;;;;4934229;28;20034;-68
2024/02/11 02:17:30;;;;;;;7.65;6.90;;;;;;;;;;4967115;28;20027;-68
2024/02/11 02:19:56;;;;;;;14.82;9.85;;;;;;;;;;4969184;28;20034;-68
2024/02/11 02:22:22;;;;;;;11.00;9.60;;;;;;;;;;4970497;28;20911;-67
2024/02/11 02:24:51;;;;;;;13.80;10.63;;;;;;;;;;4968758;28;20057;-68
2024/02/11 02:27:17;;;;;;;19.95;11.63;;;;;;;;;;4967607;28;20043;-68
2024/02/11 02:29:44;;;;;;;16.55;9.40;;;;;;;;;;4966730;28;20031;-67
2024/02/11 02:32:11;;;;;;;11.35;8.35;;;;;;;;;;4965875;28;20065;-67
2024/02/11 02:34:37;;;;;;;18.58;10.68;;;;;;;;;;4968091;28;20054;-68
2024/02/11 02:37:03;;;;;;;13.70;8.88;;;;;;;;;;4965738;28;20061;-68
2024/02/11 02:39:29;;;;;;;15.85;9.50;;;;;;;;;;4967098;28;20472;-69
2024/02/11 02:41:55;;;;;;;12.18;9.90;;;;;;;;;;4966622;28;20026;-68
2024/02/11 02:44:21;;;;;;;16.20;8.32;;;;;;;;;;4959569;28;20041;-68
2024/02/11 02:46:47;;;;;;;7.60;6.90;;;;;;;;;;4966322;28;20035;-68
2024/02/11 02:49:16;;;;;;;13.10;8.30;;;;;;;;;;4966906;28;20070;-67
2024/02/11 02:51:42;;;;;;;15.35;10.73;;;;;;;;;;4967292;28;20536;-68
2024/02/11 02:54:07;;;;;;;11.63;9.57;;;;;;;;;;4966080;28;20070;-68
2024/02/11 02:56:34;;;;;;;10.95;8.15;;;;;;;;;;4966547;28;20046;-67
2024/02/11 02:59:08;;;;;;;8.38;6.78;;;;;;;;;;4965476;28;20062;-68
2024/02/11 03:01:37;;;;;;;9.77;7.80;;;;;;;;;;4966861;28;20038;-68
2024/02/11 03:04:05;;;;;;;6.07;5.47;;;;;;;;;;4966180;28;20031;-67
2024/02/11 03:06:33;;;;;;;13.82;9.45;;;;;;;;;;4967260;28;20030;-68
2024/02/11 03:09:01;;;;;;;16.08;10.30;;;;;;;;;;4966002;28;20483;-68
2024/02/11 03:11:27;;;;;;;14.68;10.75;;;;;;;;;;4959776;28;20042;-68
2024/02/11 03:13:52;;;;;;;22.67;11.85;;;;;;;;;;4965582;28;20038;-68
2024/02/11 03:16:18;;;;;;;33.92;17.58;;;;;;;;;;4965212;28;20445;-69
2024/02/11 03:18:44;;;;;;;7.00;5.50;;;;;;;;;;4966633;28;20042;-68
2024/02/11 03:21:10;;;;;;;28.17;14.02;;;;;;;;;;4966372;28;20081;-67
2024/02/11 03:23:37;;;;;;;6.03;5.63;;;;;;;;;;4966002;28;20484;-68
2024/02/11 03:26:04;;;;;;;5.55;5.03;;;;;;;;;;4965215;28;20235;-68
2024/02/11 03:28:30;;;;;;;11.80;6.53;;;;;;;;;;4949138;28;20038;-68
2024/02/11 03:30:57;;;;;;;9.18;8.23;;;;;;;;;;4965337;28;20034;-68
2024/02/11 03:33:23;;;;;;;9.07;8.18;;;;;;;;;;4966833;28;20053;-68
2024/02/11 03:35:49;;;;;;;12.82;8.35;;;;;;;;;;4965518;28;20034;-68
2024/02/11 03:38:15;;;;;;;10.95;8.80;;;;;;;;;;4966480;28;20509;-67
2024/02/11 03:40:41;;;;;;;12.32;7.57;;;;;;;;;;4964897;28;20564;-67
2024/02/11 03:43:11;;;;;;;15.35;11.30;;;;;;;;;;4965853;28;20659;-67
2024/02/11 03:45:37;;;;;;;24.83;17.20;;;;;;;;;;4959040;28;20211;-66
2024/02/11 03:48:03;;;;;;;10.55;8.07;;;;;;;;;;4963438;28;20489;-67
2024/02/11 03:50:29;;;;;;;8.23;7.30;;;;;;;;;;4965479;28;20513;-67
2024/02/11 03:52:56;;;;;;;18.48;12.38;;;;;;;;;;4964839;28;20514;-68
2024/02/11 03:55:21;;;;;;;5.85;5.38;;;;;;;;;;4966155;28;20059;-68
2024/02/11 03:57:47;;;;;;;17.30;6.15;;;;;;;;;;4966246;28;20090;-67
2024/02/11 04:00:18;;;;;;;6.30;5.82;;;;;;;;;;4965746;28;20062;-67
2024/02/11 04:02:44;;;;;;;7.75;4.95;;;;;;;;;;4965040;28;20030;-67
2024/02/11 04:05:12;;;;;;;9.77;6.20;;;;;;;;;;4965577;28;20031;-67
2024/02/11 04:07:50;;;;;;;12.90;8.18;;;;;;;;;;4964539;28;20101;-66
2024/02/11 04:10:19;;;;;;;8.85;8.02;;;;;;;;;;4965907;28;20039;-66
2024/02/11 04:12:46;;;;;;;15.57;10.15;;;;;;;;;;4964785;28;20038;-66
2024/02/11 04:15:15;;;;;;;10.30;7.70;;;;;;;;;;4965680;28;20043;-67
2024/02/11 04:17:41;;;;;;;17.80;12.40;;;;;;;;;;4965148;28;20035;-67
2024/02/11 04:20:14;;;;;;;7.45;6.50;;;;;;;;;;4965128;28;20042;-67
2024/02/11 04:22:42;;;;;;;12.40;8.25;;;;;;;;;;4964611;28;20062;-67
2024/02/11 04:25:11;;;;;;;7.20;6.60;;;;;;;;;;4966271;28;20125;-66
2024/02/11 04:27:43;;;;;;;6.95;5.72;;;;;;;;;;4969934;28;20053;-67
2024/02/11 04:30:12;;;;;;;5.85;5.32;;;;;;;;;;4968719;28;20088;-67
2024/02/11 04:32:41;;;;;;;7.53;6.82;;;;;;;;;;4969942;28;20023;-67
2024/02/11 04:35:14;;;;;;;15.65;10.73;;;;;;;;;;4971153;28;20046;-67
2024/02/11 04:37:46;;;;;;;4.80;4.53;;;;;;;;;;4969234;28;20034;-67
2024/02/11 04:40:21;;;;;;;18.33;8.30;;;;;;;;;;4967891;28;20058;-67
2024/02/11 04:42:47;;;;;;;8.07;7.15;;;;;;;;;;4969417;28;20526;-67
2024/02/11 04:45:14;;;;;;;9.40;7.15;;;;;;;;;;4968994;28;20501;-67
2024/02/11 04:47:45;;;;;;;12.20;8.98;;;;;;;;;;4967711;28;20030;-68
2024/02/11 04:50:13;;;;;;;7.35;6.75;;;;;;;;;;4968836;28;20524;-67
2024/02/11 04:52:39;;;;;;;9.13;5.57;;;;;;;;;;4968834;28;20043;-67
2024/02/11 04:55:06;;;;;;;6.60;4.97;;;;;;;;;;4968758;28;20062;-67
2024/02/11 04:57:38;;;;;;;8.35;5.97;;;;;;;;;;4971409;28;20039;-67
2024/02/11 05:00:09;;;;;;;8.75;7.72;;;;;;;;;;4968094;28;20086;-67
2024/02/11 05:02:37;;;;;;;11.18;9.15;;;;;;;;;;4969059;28;20027;-68
2024/02/11 05:05:04;;;;;;;6.60;5.95;;;;;;;;;;4967181;28;20064;-68
2024/02/11 05:07:32;;;;;;;5.50;5.10;;;;;;;;;;4966380;28;20122;-68
2024/02/11 05:09:58;;;;;;;10.13;7.43;;;;;;;;;;4969269;28;20343;-68
2024/02/11 05:12:24;;;;;;;9.55;6.82;;;;;;;;;;4969060;28;20038;-68
2024/02/11 05:14:51;;;;;;;17.13;12.20;;;;;;;;;;4967876;28;20421;-68
2024/02/11 05:17:16;;;;;;;10.07;9.23;;;;;;;;;;4968402;28;20031;-68
2024/02/11 05:19:42;;;;;;;10.05;7.65;;;;;;;;;;4968461;28;20043;-68
2024/02/11 05:22:09;;;;;;;11.25;8.93;;;;;;;;;;4968148;28;20350;-67
2024/02/11 05:24:37;;;;;;;8.02;7.35;;;;;;;;;;4969310;28;20035;-68
2024/02/11 05:27:04;;;;;;;13.25;7.32;;;;;;;;;;4967640;28;20066;-68
2024/02/11 05:29:30;;;;;;;11.38;7.78;;;;;;;;;;4966789;28;20034;-68
2024/02/11 05:31:56;;;;;;;8.48;7.63;;;;;;;;;;4967578;28;20039;-68
2024/02/11 05:34:21;;;;;;;4.38;3.92;;;;;;;;;;4958664;28;20050;-70
2024/02/11 05:36:48;;;;;;;27.38;8.43;;;;;;;;;;4966413;28;20157;-70
2024/02/11 05:39:14;;;;;;;13.18;9.32;;;;;;;;;;4959855;28;20133;-69
2024/02/11 05:41:41;;;;;;;15.48;11.13;;;;;;;;;;4965747;28;20125;-70
2024/02/11 05:44:07;;;;;;;11.38;10.15;;;;;;;;;;4965215;28;20122;-70
2024/02/11 05:46:33;;;;;;;7.40;6.75;;;;;;;;;;4963846;28;20085;-70
2024/02/11 05:48:59;;;;;;;20.33;13.77;;;;;;;;;;4961769;28;20069;-70
2024/02/11 05:51:25;;;;;;;15.50;9.48;;;;;;;;;;4966280;28;20682;-70
2024/02/11 05:53:51;;;;;;;10.90;8.45;;;;;;;;;;4967676;28;20434;-70
2024/02/11 05:56:17;;;;;;;14.82;8.70;;;;;;;;;;4967359;28;20049;-70
2024/02/11 05:58:43;;;;;;;12.65;9.13;;;;;;;;;;4966519;28;20070;-72
2024/02/11 06:01:09;;;;;;;22.33;13.68;;;;;;;;;;4948583;28;20034;-70
2024/02/11 06:03:46;;;;;;;10.55;7.72;;;;;;;;;;4964826;28;20039;-70
2024/02/11 06:06:21;;;;;;;22.60;13.20;;;;;;;;;;4950223;28;20030;-71
2024/02/11 06:08:47;;;;;;;6.68;5.40;;;;;;;;;;4966791;28;20034;-71
2024/02/11 06:11:13;;;;;;;9.52;7.15;;;;;;;;;;4966400;28;20030;-72
2024/02/11 06:13:39;;;;;;;9.10;7.63;;;;;;;;;;4966760;28;20043;-71
2024/02/11 06:16:06;;;;;;;8.25;6.90;;;;;;;;;;4958321;28;20581;-71
2024/02/11 06:18:32;;;;;;;13.07;7.57;;;;;;;;;;4963584;28;20038;-71
2024/02/11 06:20:57;;;;;;;5.75;5.28;;;;;;;;;;4964994;28;20062;-71
2024/02/11 06:23:23;;;;;;;10.52;5.60;;;;;;;;;;4965810;28;20081;-71
2024/02/11 06:25:52;;;;;;;5.03;4.72;;;;;;;;;;4964377;28;20046;-71
2024/02/11 06:28:19;;;;;;;5.78;3.90;;;;;;;;;;4964524;28;20038;-71
2024/02/11 06:30:45;;;;;;;7.15;6.35;;;;;;;;;;4963890;28;20039;-70
2024/02/11 06:33:11;;;;;;;7.47;6.85;;;;;;;;;;4969295;28;20134;-71
2024/02/11 06:35:37;;;;;;;7.07;6.43;;;;;;;;;;4966735;28;20527;-72
2024/02/11 06:38:04;;;;;;;8.15;6.68;;;;;;;;;;4966129;28;20082;-71
2024/02/11 06:40:31;;;;;;;12.15;8.93;;;;;;;;;;4964202;28;20054;-71
2024/02/11 06:42:59;;;;;;;16.98;12.43;;;;;;;;;;4963552;28;20034;-71
2024/02/11 06:45:25;;;;;;;7.88;6.95;;;;;;;;;;4961851;28;20604;-71
2024/02/11 06:47:52;;;;;;;4.97;4.50;;;;;;;;;;4964648;28;20533;-71
2024/02/11 06:50:19;;;;;;;9.23;8.35;;;;;;;;;;4964837;28;20038;-72
2024/02/11 06:52:47;;;;;;;9.05;6.28;;;;;;;;;;4963990;28;20104;-69
2024/02/11 06:55:15;;;;;;;7.32;6.63;;;;;;;;;;4962807;28;20046;-71
2024/02/11 06:57:42;;;;;;;5.60;5.10;;;;;;;;;;4966870;28;20041;-71
2024/02/11 07:00:09;;;;;;;5.82;5.30;;;;;;;;;;4963588;28;20417;-70
2024/02/11 07:02:36;;;;;;;6.80;6.20;;;;;;;;;;4951632;28;20109;-72
2024/02/11 07:05:05;;;;;;;7.10;6.22;;;;;;;;;;4965781;28;20050;-72
2024/02/11 07:07:33;;;;;;;14.45;8.95;;;;;;;;;;4957971;28;20027;-71
2024/02/11 07:09:59;;;;;;;7.35;6.22;;;;;;;;;;4940550;28;20034;-72
2024/02/11 07:12:25;;;;;;;6.20;5.68;;;;;;;;;;4986262;28;20500;-71
2024/02/11 07:14:51;;;;;;;11.57;8.32;;;;;;;;;;4985802;28;20556;-71
2024/02/11 07:17:17;;;;;;;12.82;6.28;;;;;;;;;;4949363;28;20117;-70
2024/02/11 07:19:43;;;;;;;8.55;7.22;;;;;;;;;;4966413;28;20035;-70
2024/02/11 07:22:09;;;;;;;5.70;5.07;;;;;;;;;;4964911;28;20034;-70
2024/02/11 07:24:35;;;;;;;7.60;6.55;;;;;;;;;;4948971;28;20038;-70
2024/02/11 07:27:06;;;;;;;14.52;8.30;;;;;;;;;;4966056;28;20142;-70
2024/02/11 07:29:33;;;;;;;6.20;5.57;;;;;;;;;;4966269;28;20035;-69
2024/02/11 07:31:59;;;;;;;11.43;8.40;;;;;;;;;;4966097;28;20047;-71
2024/02/11 07:34:26;;;;;;;7.40;4.60;;;;;;;;;;4945709;29;20421;-71
2024/02/11 07:39:38;;;;;;;20.55;10.85;;;;;;;;;;4965817;28;20525;-71
2024/02/11 07:42:04;;;;;;;7.78;7.03;;;;;;;;;;4948902;28;20054;-70
2024/02/11 07:44:30;;;;;;;8.05;7.32;;;;;;;;;;4966191;28;20031;-71
2024/02/11 07:46:57;;;;;;;8.02;6.68;;;;;;;;;;4964218;28;20093;-71
2024/02/11 07:49:23;;;;;;;11.63;8.43;;;;;;;;;;4966088;28;20041;-69
2024/02/11 07:51:49;;;;;;;8.38;7.30;;;;;;;;;;4964124;28;20487;-70
2024/02/11 07:54:15;;;;;;;8.88;7.82;;;;;;;;;;4962421;28;20050;-71
2024/02/11 07:56:59;;;;;;;4.28;3.97;;;;;;;;;;4971540;28;20465;-70
2024/02/11 07:59:25;;;;;;;7.82;6.93;;;;;;;;;;4966419;28;20066;-72
2024/02/11 08:01:51;;;;;;;4.93;4.53;;;;;;;;;;4969500;28;20101;-71
2024/02/11 08:04:18;;;;;;;8.50;7.63;;;;;;;;;;4967275;28;20031;-71
2024/02/11 08:06:45;;;;;;;7.15;6.38;;;;;;;;;;4966512;28;20050;-73
2024/02/11 08:09:12;;;;;;;5.63;5.13;;;;;;;;;;4965998;28;20039;-73
2024/02/11 08:11:40;;;;;;;7.15;5.30;;;;;;;;;;4946620;28;20034;-72
2024/02/11 08:14:07;;;;;;;10.23;7.97;;;;;;;;;;4963787;28;20097;-72
2024/02/11 08:16:33;;;;;;;8.85;6.45;;;;;;;;;;4970878;28;20034;-71
2024/02/11 08:18:59;;;;;;;4.65;4.30;;;;;;;;;;4966019;28;20051;-72
2024/02/11 08:21:26;;;;;;;8.75;7.68;;;;;;;;;;4950745;28;20035;-72
2024/02/11 08:23:52;;;;;;;7.40;6.45;;;;;;;;;;4949693;29;20561;-72
2024/02/11 08:26:17;;;;;;;11.75;7.22;;;;;;;;;;4950067;29;20035;-74
2024/02/11 08:28:44;;;;;;;7.43;6.57;;;;;;;;;;4965673;28;20105;-72
2024/02/11 08:31:11;;;;;;;7.40;6.68;;;;;;;;;;4949691;28;20118;-72
2024/02/11 08:33:37;;;;;;;6.82;5.35;;;;;;;;;;4961613;28;20402;-70
2024/02/11 08:36:03;;;;;;;7.28;5.45;;;;;;;;;;4970038;28;20023;-71
2024/02/11 08:38:30;;;;;;;9.60;7.50;;;;;;;;;;4970922;28;20065;-71
2024/02/11 08:40:55;;;;;;;7.53;5.40;;;;;;;;;;4970510;28;20059;-71
2024/02/11 08:43:21;;;;;;;10.90;8.13;;;;;;;;;;4969770;28;20087;-70
2024/02/11 08:45:47;;;;;;;9.55;8.68;;;;;;;;;;4970395;28;20121;-71
2024/02/11 08:48:14;;;;;;;8.23;5.95;;;;;;;;;;4969778;28;20085;-71
2024/02/11 08:50:40;;;;;;;9.10;8.25;;;;;;;;;;4969161;28;20051;-71
2024/02/11 08:53:06;;;;;;;7.20;5.05;;;;;;;;;;4968934;28;20069;-71
2024/02/11 08:55:32;;;;;;;6.72;5.90;;;;;;;;;;4970047;28;20042;-71
2024/02/11 08:57:59;;;;;;;31.92;7.43;;;;;;;;;;4968263;28;20058;-71
2024/02/11 09:00:26;;;;;;;12.40;7.93;;;;;;;;;;4969385;28;20134;-71
2024/02/11 09:02:53;;;;;;;7.72;6.43;;;;;;;;;;4969406;28;20567;-70
2024/02/11 09:05:20;;;;;;;14.13;7.55;;;;;;;;;;4969179;28;20130;-70
2024/02/11 09:07:46;;;;;;;6.97;5.43;;;;;;;;;;4969815;28;20034;-70
2024/02/11 09:10:15;;;;;;;7.30;6.60;;;;;;;;;;4965603;28;20041;-71
2024/02/11 09:12:42;;;;;;;7.47;6.75;;;;;;;;;;4952662;28;20031;-71
2024/02/11 09:15:09;;;;;;;11.45;7.55;;;;;;;;;;4947757;28;20580;-70
2024/02/11 09:17:37;;;;;;;7.50;6.68;;;;;;;;;;4951492;28;20039;-71
2024/02/11 09:20:04;;;;;;;8.75;7.95;;;;;;;;;;4962663;28;20512;-71
2024/02/11 09:22:32;;;;;;;11.10;5.60;;;;;;;;;;4968261;28;20570;-71
2024/02/11 09:24:58;;;;;;;6.93;6.32;;;;;;;;;;4982856;28;20038;-71
2024/02/11 09:27:24;;;;;;;8.23;6.53;;;;;;;;;;4971732;28;20557;-72
2024/02/11 09:29:50;;;;;;;6.43;5.50;;;;;;;;;;4973115;28;20126;-72
2024/02/11 09:32:16;;;;;;;5.68;5.15;;;;;;;;;;4960601;28;20540;-74
2024/02/11 09:34:42;;;;;;;6.53;5.80;;;;;;;;;;4966894;28;20078;-72
2024/02/11 09:37:08;;;;;;;10.85;7.53;;;;;;;;;;4962601;28;20046;-72
2024/02/11 09:39:34;;;;;;;6.38;5.75;;;;;;;;;;4960636;28;20055;-77
2024/02/11 09:42:00;;;;;;;9.30;7.07;;;;;;;;;;4965573;28;20074;-73
2024/02/11 09:44:27;;;;;;;7.60;6.70;;;;;;;;;;4966176;28;20167;-71
2024/02/11 09:46:52;;;;;;;4.07;3.70;;;;;;;;;;4966965;28;20027;-71
2024/02/11 09:49:19;;;;;;;10.07;8.02;;;;;;;;;;4966591;28;20066;-71
2024/02/11 09:51:48;;;;;;;14.02;8.98;;;;;;;;;;4961737;28;20093;-71
2024/02/11 09:54:15;;;;;;;12.57;7.75;;;;;;;;;;4963097;28;20058;-72
2024/02/11 09:56:42;;;;;;;14.57;9.85;;;;;;;;;;4956093;28;20035;-72
2024/02/11 09:59:09;;;;;;;17.13;13.38;;;;;;;;;;4958500;28;20065;-71
2024/02/11 10:01:35;;;;;;;24.60;14.70;;;;;;;;;;4962402;28;20035;-72
2024/02/11 10:04:04;;;;;;;21.48;13.52;;;;;;;;;;4958829;28;20027;-71
2024/02/11 10:06:42;;;;;;;7.20;6.05;;;;;;;;;;4960437;28;20050;-72
2024/02/11 10:09:13;;;;;;;14.95;11.65;;;;;;;;;;4966148;28;20037;-70
2024/02/11 10:11:39;;;;;;;9.52;7.43;;;;;;;;;;4965967;28;20513;-71
2024/02/11 10:14:13;;;;;;;16.77;9.88;;;;;;;;;;4966127;28;20066;-71
2024/02/11 10:16:42;;;;;;;12.45;10.52;;;;;;;;;;4966180;28;20062;-72
2024/02/11 10:19:09;;;;;;;9.93;7.82;;;;;;;;;;4965331;28;20066;-71
2024/02/11 10:21:35;;;;;;;17.60;13.68;;;;;;;;;;4966337;28;20070;-72
2024/02/11 10:24:04;;;;;;;12.00;10.75;;;;;;;;;;4966693;28;20129;-72
2024/02/11 10:26:31;;;;;;;19.40;13.52;;;;;;;;;;4963218;28;20042;-70
2024/02/11 10:28:58;;;;;;;15.45;9.68;;;;;;;;;;4965755;28;20038;-72
2024/02/11 10:31:24;;;;;;;14.35;9.52;;;;;;;;;;4966566;28;20039;-72
2024/02/11 10:33:50;;;;;;;13.70;9.00;;;;;;;;;;4965858;28;20050;-71
2024/02/11 10:36:16;;;;;;;14.50;8.80;;;;;;;;;;4969407;28;20060;-71
2024/02/11 10:38:42;;;;;;;13.20;10.63;;;;;;;;;;4964568;28;20039;-70
2024/02/11 10:41:08;;;;;;;10.98;8.68;;;;;;;;;;4960872;28;20047;-72
2024/02/11 10:43:34;;;;;;;12.90;7.53;;;;;;;;;;4966316;28;20043;-71
2024/02/11 10:46:04;;;;;;;11.27;8.18;;;;;;;;;;4981093;28;20495;-71
2024/02/11 10:48:30;;;;;;;16.52;10.40;;;;;;;;;;4965887;28;20568;-70
2024/02/11 10:51:03;;;;;;;15.38;11.65;;;;;;;;;;4965113;28;20041;-70
2024/02/11 10:53:32;;;;;;;18.25;8.80;;;;;;;;;;4966169;28;20050;-70
2024/02/11 10:55:59;;;;;;;9.38;7.50;;;;;;;;;;4965665;28;20091;-71
2024/02/11 10:58:27;;;;;;;21.38;10.18;;;;;;;;;;4965554;28;20158;-72
2024/02/11 11:00:52;;;;;;;10.43;6.85;;;;;;;;;;4949299;28;20039;-72
2024/02/11 11:03:21;;;;;;;6.25;5.65;;;;;;;;;;4966712;28;20501;-72
2024/02/11 11:05:47;;;;;;;5.93;5.40;;;;;;;;;;4964269;28;20125;-72
2024/02/11 11:08:13;;;;;;;10.63;8.82;;;;;;;;;;4962540;28;20039;-71
2024/02/11 11:10:39;;;;;;;13.27;8.45;;;;;;;;;;4965699;28;20031;-72
2024/02/11 11:13:05;;;;;;;15.10;10.32;;;;;;;;;;4964697;28;20077;-72
2024/02/11 11:15:31;;;;;;;8.13;7.43;;;;;;;;;;4961798;28;20035;-72
2024/02/11 11:17:59;;;;;;;14.32;10.70;;;;;;;;;;4964419;28;20394;-71
2024/02/11 11:20:26;;;;;;;9.68;6.65;;;;;;;;;;4963168;28;20034;-71
2024/02/11 11:22:54;;;;;;;13.15;8.18;;;;;;;;;;4965146;28;20031;-71
2024/02/11 11:25:21;;;;;;;8.80;7.13;;;;;;;;;;4964300;28;20350;-71
2024/02/11 11:27:48;;;;;;;10.35;7.18;;;;;;;;;;4963461;28;20042;-70
2024/02/11 11:30:14;;;;;;;10.68;9.15;;;;;;;;;;4965457;28;20035;-72
2024/02/11 11:32:45;;;;;;;7.80;6.75;;;;;;;;;;4967590;28;20031;-71
2024/02/11 11:35:12;;;;;;;9.75;5.80;;;;;;;;;;4966662;28;20648;-71
2024/02/11 11:37:38;;;;;;;6.68;6.07;;;;;;;;;;4967570;28;20035;-71
2024/02/11 11:40:04;;;;;;;10.48;6.82;;;;;;;;;;4966991;28;20063;-71
2024/02/11 11:42:30;;;;;;;8.98;7.25;;;;;;;;;;4967840;28;20039;-71
2024/02/11 11:45:06;;;;;;;8.45;7.25;;;;;;;;;;4966184;28;20563;-71
2024/02/11 11:47:35;;;;;;;8.70;7.47;;;;;;;;;;4966038;28;20371;-71
2024/02/11 11:50:05;;;;;;;8.90;5.93;;;;;;;;;;4966990;28;20563;-71
2024/02/11 11:52:34;;;;;;;15.98;9.25;;;;;;;;;;4967183;28;20549;-71
2024/02/11 11:55:03;;;;;;;7.05;6.18;;;;;;;;;;4965688;28;20521;-71
2024/02/11 11:57:30;;;;;;;6.30;5.60;;;;;;;;;;4966706;28;20035;-71
2024/02/11 11:59:59;;;;;;;6.90;5.50;;;;;;;;;;4949759;28;20031;-72
2024/02/11 12:02:25;;;;;;;8.23;7.10;;;;;;;;;;4965603;28;20074;-71
2024/02/11 12:04:51;;;;;;;9.00;5.90;;;;;;;;;;4965674;28;20030;-72
2024/02/11 12:07:18;;;;;;;11.82;9.10;;;;;;;;;;4965630;28;20039;-71
2024/02/11 12:09:44;;;;;;;7.22;5.05;;;;;;;;;;4966365;28;20081;-72
2024/02/11 12:12:10;;;;;;;7.72;6.13;;;;;;;;;;4965585;28;20059;-70
2024/02/11 12:14:39;;;;;;;6.20;5.50;;;;;;;;;;4966028;28;20537;-71
2024/02/11 12:17:05;;;;;;;5.03;4.43;;;;;;;;;;4967304;28;20509;-70
2024/02/11 12:19:38;;;;;;;7.43;6.72;;;;;;;;;;4966301;28;20138;-71
2024/02/11 12:22:07;;;;;;;8.13;6.90;;;;;;;;;;4967854;28;20038;-72
2024/02/11 12:24:36;;;;;;;6.43;5.10;;;;;;;;;;4965964;28;20049;-71
2024/02/11 12:27:02;;;;;;;7.57;6.88;;;;;;;;;;4950064;28;20197;-71
2024/02/11 12:29:31;;;;;;;6.82;6.13;;;;;;;;;;4965187;28;20117;-70
2024/02/11 12:31:57;;;;;;;7.32;6.63;;;;;;;;;;4967304;28;20089;-71
2024/02/11 12:34:29;;;;;;;6.07;5.35;;;;;;;;;;4966306;28;20066;-71
2024/02/11 12:37:03;;;;;;;5.53;5.13;;;;;;;;;;4933828;28;20377;-71
2024/02/11 12:39:32;;;;;;;6.93;5.90;;;;;;;;;;4965964;28;20475;-71
2024/02/11 12:41:58;;;;;;;13.93;9.02;;;;;;;;;;4966976;28;20030;-71
2024/02/11 12:44:27;;;;;;;6.82;6.22;;;;;;;;;;4966108;28;20413;-71
2024/02/11 12:46:55;;;;;;;6.25;5.68;;;;;;;;;;4969241;28;20031;-71
2024/02/11 12:49:23;;;;;;;5.03;4.65;;;;;;;;;;4968139;28;20559;-72
2024/02/11 12:51:48;;;;;;;5.43;4.78;;;;;;;;;;4970118;28;20047;-71
2024/02/11 12:54:15;;;;;;;9.02;7.63;;;;;;;;;;4969312;28;20121;-71
2024/02/11 12:56:43;;;;;;;10.52;7.35;;;;;;;;;;4970416;28;20035;-71
2024/02/11 12:59:10;;;;;;;7.70;6.97;;;;;;;;;;4969643;28;20038;-71
2024/02/11 13:01:35;;;;;;;6.65;6.05;;;;;;;;;;4971914;28;20043;-70
2024/02/11 13:04:02;;;;;;;7.22;6.50;;;;;;;;;;4970248;28;20035;-71
2024/02/11 13:06:28;;;;;;;6.10;5.50;;;;;;;;;;4968380;28;20149;-71
2024/02/11 13:08:55;;;;;;;8.73;7.90;;;;;;;;;;4970034;28;20596;-71
2024/02/11 13:11:21;;;;;;;13.13;8.52;;;;;;;;;;4905943;28;21888;-71
2024/02/11 13:13:49;;;;;;;5.13;4.68;;;;;;;;;;4964143;28;20101;-71
2024/02/11 13:16:16;;;;;;;5.68;5.18;;;;;;;;;;4960745;28;20045;-71
2024/02/11 13:18:43;;;;;;;8.13;7.15;;;;;;;;;;4963721;28;20062;-71
2024/02/11 13:21:09;;;;;;;6.13;5.68;;;;;;;;;;4961623;28;20050;-71
2024/02/11 13:23:38;;;;;;;9.88;7.50;;;;;;;;;;4967893;28;20456;-71
2024/02/11 13:26:04;;;;;;;5.75;4.93;;;;;;;;;;4944567;28;20077;-71
2024/02/11 13:28:32;;;;;;;7.60;6.80;;;;;;;;;;4949331;28;20506;-71
2024/02/11 13:30:59;;;;;;;6.97;6.20;;;;;;;;;;4964757;28;20165;-71
2024/02/11 13:33:25;;;;;;;6.47;5.88;;;;;;;;;;4965737;28;20038;-71
2024/02/11 13:35:52;;;;;;;7.25;5.72;;;;;;;;;;4966759;28;20093;-71
2024/02/11 13:38:21;;;;;;;6.57;5.93;;;;;;;;;;4954337;28;20070;-72
2024/02/11 13:40:48;;;;;;;9.70;6.03;;;;;;;;;;4967326;28;20054;-72
2024/02/11 13:43:14;;;;;;;10.98;7.10;;;;;;;;;;4966267;28;20039;-70
2024/02/11 13:45:42;;;;;;;7.60;6.22;;;;;;;;;;4968056;28;20101;-71
2024/02/11 13:48:08;;;;;;;11.93;8.20;;;;;;;;;;4965681;28;20030;-72
2024/02/11 13:50:34;;;;;;;6.00;5.50;;;;;;;;;;4968468;28;20129;-72
2024/02/11 13:53:01;;;;;;;7.70;7.05;;;;;;;;;;4964451;28;20186;-71
2024/02/11 13:55:27;;;;;;;20.98;8.10;;;;;;;;;;4948447;28;20054;-72
2024/02/11 13:57:53;;;;;;;6.32;5.72;;;;;;;;;;4964301;28;20054;-71
2024/02/11 14:00:21;;;;;;;8.82;6.72;;;;;;;;;;4962310;28;20069;-71
2024/02/11 14:02:48;;;;;;;7.15;6.47;;;;;;;;;;4943636;28;20031;-71
2024/02/11 14:05:14;;;;;;;8.13;4.47;;;;;;;;;;4964658;28;20501;-71
2024/02/11 14:07:40;;;;;;;16.30;7.07;;;;;;;;;;4963809;28;20085;-71
2024/02/11 14:10:06;;;;;;;8.88;6.40;;;;;;;;;;4962544;28;20051;-71
2024/02/11 14:12:35;;;;;;;6.57;5.93;;;;;;;;;;4962658;28;20042;-71
2024/02/11 14:15:05;;;;;;;10.52;5.85;;;;;;;;;;4963584;28;20046;-72
2024/02/11 14:17:37;;;;;;;5.55;4.97;;;;;;;;;;4962106;28;20064;-72
2024/02/11 14:20:03;;;;;;;6.25;5.70;;;;;;;;;;4960325;28;20070;-72
2024/02/11 14:22:29;;;;;;;9.52;7.75;;;;;;;;;;4960356;28;20039;-71
2024/02/11 14:24:55;;;;;;;8.48;7.55;;;;;;;;;;4956986;28;20034;-72
2024/02/11 14:27:22;;;;;;;10.98;5.32;;;;;;;;;;4959305;28;20030;-72
2024/02/11 14:29:48;;;;;;;13.00;9.00;;;;;;;;;;4962863;28;20034;-71
2024/02/11 14:32:16;;;;;;;7.82;6.57;;;;;;;;;;4965199;28;20035;-72
2024/02/11 14:34:42;;;;;;;5.40;4.90;;;;;;;;;;4958849;28;20121;-71
2024/02/11 14:37:11;;;;;;;9.13;7.00;;;;;;;;;;4956660;28;20030;-72